Whitewater Creek, Colorado (Grand Mesa) Weather observations

Data are for observation ending at time listed.
 Day   Time    Ave.   Ave.  Ave.  Vector   Max.    Total    Solar   Ave.  
  of    of     Air    Rel.  Wind   Wind    Wind   Precip.   Rad.    Soil  
Year   Day     Temp.  Hum.  Speed  Dir.    Gust                     Temp. 
2014   (MST)    F      %     mph   deg.    mph      in.     W/m2     F   
------------------------------------------------------------------------------
 296    9:10   43.1    55    2.2   187      2.2    99999.00   99999    99999.0
 296    9:20   43.4    55    2.2   192      2.2    99999.00   99999    99999.0
 296    9:30   43.7    54    6.7   194     12.5    99999.00   99999    99999.0
 296    9:40   44.2    54    6.5   188     12.5    99999.00   99999    99999.0
 296    9:50   44.4    54    8.0   195     12.5    99999.00   99999    99999.0
 296   10:00   44.7    54    7.5   201     12.5    99999.00   99999    99999.0
 296   10:10   45.2    53    6.0   196     11.2    99999.00   99999    99999.0
 296   10:20   45.5    52    6.1   213     11.2    99999.00   99999    99999.0
 296   10:30   45.4    52    6.2   219     12.5    99999.00   99999    99999.0
 296   10:40   45.7    50    6.6   210     12.5    99999.00   99999    99999.0
 296   10:50   45.7    50    6.8   223     12.5    99999.00   99999    99999.0
 296   11:00   46.3    50    5.5   210     12.5    99999.00   99999    99999.0
 296   11:10   46.1    50    6.2   226     11.2    99999.00   99999    99999.0
 296   11:20   46.3    48    6.6   202     13.8    99999.00   99999    99999.0
 296   11:30   46.4    48    7.4   210     15.0    99999.00   99999    99999.0
 296   11:40   46.9    47    7.7   217     12.5    99999.00   99999    99999.0
 296   11:50   47.0    47    7.8   221     12.5    99999.00   99999    99999.0
 296   12:00   47.1    47    8.8   211     13.8    99999.00   99999    99999.0
 296   12:10   47.2    46    9.5   209     15.0    99999.00   99999    99999.0
 296   12:20   47.1    45    9.5   211     16.3    99999.00   99999    99999.0
 296   12:30   47.7    44    9.9   207     17.6    99999.00   99999    99999.0
 296   12:40   47.9    43    9.0   209     17.6    99999.00   99999    99999.0
 296   12:50   47.9    42    8.8   209     18.9    99999.00   99999    99999.0
 296   13:00   48.4    40    7.7   214     16.3    99999.00   99999    99999.0
 296   13:10   48.7    39    8.7   218     15.0    99999.00   99999    99999.0
 296   13:20   48.7    37    8.2   194     15.0    99999.00   99999    99999.0
 296   13:30   49.0    38    9.2   213     15.0    99999.00   99999    99999.0
 296   13:40   48.7    41   10.3   213     16.3    99999.00   99999    99999.0
 296   13:50   48.7    42    8.5   214     16.3    99999.00   99999    99999.0
 296   14:00   48.8    45   10.6   207     17.6    99999.00   99999    99999.0
 296   14:10   49.3    44   11.1   206     17.6    99999.00   99999    99999.0
 296   14:20   49.1    45   11.6   201     17.6    99999.00   99999    99999.0
 296   14:30   49.5    45   10.1   197     17.6    99999.00   99999    99999.0
 296   14:40   49.4    45   10.1   204     18.9    99999.00   99999    99999.0
 296   14:50   49.9    44    9.9   203     17.6    99999.00   99999    99999.0
 296   15:00   49.9    44    9.3   208     15.0    99999.00   99999    99999.0
 296   15:10   49.7    44   10.4   199     17.6    99999.00   99999    99999.0
 296   15:20   49.5    43   10.2   203     16.3    99999.00   99999    99999.0
 296   15:30   50.0    43   10.7   208     16.3    99999.00   99999    99999.0
 296   15:40   49.6    44   10.8   204     17.6    99999.00   99999    99999.0
 296   15:50   50.2    43    9.8   218     16.3    99999.00   99999    99999.0
 296   16:00   50.3    42    9.8   208     15.0    99999.00   99999    99999.0
 296   16:10   50.1    39    9.3   214     17.6    99999.00   99999    99999.0
 296   16:20   49.9    42    8.2   209     13.8    99999.00   99999    99999.0
 296   16:30   49.5    44    9.7   203     13.8    99999.00   99999    99999.0
 296   16:40   48.8    45   10.7   200     15.0    99999.00   99999    99999.0
 296   16:50   48.8    46   10.8   205     15.0    99999.00   99999    99999.0
 296   17:00   48.6    44   11.2   201     16.3    99999.00   99999    99999.0
 296   17:10   48.6    43   12.0   202     16.3    99999.00   99999    99999.0
 296   17:20   48.7    43   10.5   199     15.0    99999.00   99999    99999.0
 296   17:30   48.4    43   10.8   197     15.0    99999.00   99999    99999.0
 296   17:40   48.3    43   10.1   192     15.0    99999.00   99999    99999.0
 296   17:50   48.1    43   11.2   198     15.0    99999.00   99999    99999.0
 296   18:00   47.7    44   11.4   202     16.3    99999.00   99999    99999.0
 296   18:10   47.3    44   10.4   199     15.0    99999.00   99999    99999.0
 296   18:20   46.5    46   12.8   202     17.6    99999.00   99999    99999.0
 296   18:30   45.4    49   11.4   202     15.0    99999.00   99999    99999.0
 296   18:40   44.6    50    9.2   203     12.5    99999.00   99999    99999.0
 296   18:50   43.7    52    8.1   201     11.2    99999.00   99999    99999.0
 296   19:00   43.8    52    7.5   192      9.9    99999.00   99999    99999.0
 296   19:10   43.9    52    8.7   184     11.2    99999.00   99999    99999.0
 296   19:20   43.6    53    8.5   186     11.2    99999.00   99999    99999.0
 296   19:30   43.4    54    9.4   185     12.5    99999.00   99999    99999.0
 296   19:40   43.4    54   10.2   184     12.5    99999.00   99999    99999.0
 296   19:50   43.5    53   10.3   188     13.8    99999.00   99999    99999.0
 296   20:00   43.5    53    8.6   188     11.2    99999.00   99999    99999.0
 296   20:10   43.7    53    9.1   189     12.5    99999.00   99999    99999.0
 296   20:20   43.6    53    9.1   196     12.5    99999.00   99999    99999.0
 296   20:30   43.6    52    9.9   195     12.5    99999.00   99999    99999.0
 296   20:40   43.5    53    9.5   194     12.5    99999.00   99999    99999.0
 296   20:50   43.5    53   10.0   193     13.8    99999.00   99999    99999.0
 296   21:00   43.3    53   10.5   189     15.0    99999.00   99999    99999.0
 296   21:10   43.1    53   10.0   189     15.0    99999.00   99999    99999.0
 296   21:20   43.2    52   11.6   186     16.3    99999.00   99999    99999.0
 296   21:30   43.2    52   11.4   183     15.0    99999.00   99999    99999.0
 296   21:40   43.6    51   11.7   181     15.0    99999.00   99999    99999.0
 296   21:50   43.6    51   11.3   182     15.0    99999.00   99999    99999.0
 296   22:00   43.1    52   11.5   186     16.3    99999.00   99999    99999.0
 296   22:10   42.8    52   11.9   186     16.3    99999.00   99999    99999.0
 296   22:20   42.8    51   12.1   188     16.3    99999.00   99999    99999.0
 296   22:30   43.1    50   12.6   190     17.6    99999.00   99999    99999.0
 296   22:40   43.5    48   13.4   193     17.6    99999.00   99999    99999.0
 296   22:50   43.6    46   13.8   193     18.9    99999.00   99999    99999.0
 296   23:00   44.1    45   14.6   192     20.2    99999.00   99999    99999.0
 296   23:10   43.9    46   14.9   192     20.2    99999.00   99999    99999.0
 296   23:20   43.8    47   14.8   190     20.2    99999.00   99999    99999.0
 296   23:30   43.6    46   15.3   192     20.2    99999.00   99999    99999.0
 296   23:40   43.5    46   14.5   188     18.9    99999.00   99999    99999.0
 296   23:50   43.3    47   14.7   189     20.2    99999.00   99999    99999.0
 297    0:00   43.1    47   14.3   193     20.2    99999.00   99999    99999.0
 297    0:10   43.1    47   14.8   193     20.2    99999.00   99999    99999.0
 297    0:20   43.3    48   16.0   195     20.2    99999.00   99999    99999.0
 297    0:30   42.9    51   15.4   193     22.7    99999.00   99999    99999.0
 297    0:40   43.1    52   16.8   199     21.4    99999.00   99999    99999.0
 297    0:50   43.4    51   16.5   199     21.4    99999.00   99999    99999.0
 297    1:00   43.4    51   16.4   197     21.4    99999.00   99999    99999.0
 297    1:10   43.7    50   16.8   195     22.7    99999.00   99999    99999.0
 297    1:20   44.4    47   18.4   198     24.0    99999.00   99999    99999.0
 297    1:30   44.5    45   19.1   195     24.0    99999.00   99999    99999.0
 297    1:40   44.2    46   18.3   197     24.0    99999.00   99999    99999.0
 297    1:50   44.0    46   16.8   194     22.7    99999.00   99999    99999.0
 297    2:00   43.9    46   16.2   192     22.7    99999.00   99999    99999.0
 297    2:10   43.9    45   17.8   196     24.0    99999.00   99999    99999.0
 297    2:20   44.1    42   17.2   196     22.7    99999.00   99999    99999.0
 297    2:30   43.9    43   15.0   198     20.2    99999.00   99999    99999.0
 297    2:40   44.0    41   17.2   198     21.4    99999.00   99999    99999.0
 297    2:50   44.3    39   16.9   199     22.7    99999.00   99999    99999.0
 297    3:00   44.1    39   14.6   198     20.2    99999.00   99999    99999.0
 297    3:10   43.7    40   15.0   194     20.2    99999.00   99999    99999.0
 297    3:20   43.6    39   14.3   194     18.9    99999.00   99999    99999.0
 297    3:30   43.7    38   16.0   200     22.7    99999.00   99999    99999.0
 297    3:40   43.7    38   16.6   202     21.4    99999.00   99999    99999.0
 297    3:50   43.5    39   14.9   199     22.7    99999.00   99999    99999.0
 297    4:00   43.3    38   14.4   197     18.9    99999.00   99999    99999.0
 297    4:10   43.1    38   14.4   192     18.9    99999.00   99999    99999.0
 297    4:20   43.1    38   14.8   192     18.9    99999.00   99999    99999.0
 297    4:30   43.0    38   14.3   190     18.9    99999.00   99999    99999.0
 297    4:40   42.7    38   12.8   194     18.9    99999.00   99999    99999.0
 297    4:50   42.5    38   11.8   195     16.3    99999.00   99999    99999.0
 297    5:00   42.3    38   11.6   194     16.3    99999.00   99999    99999.0
 297    5:10   42.1    38   11.7   192     15.0    99999.00   99999    99999.0
 297    5:20   42.1    38   11.9   192     16.3    99999.00   99999    99999.0
 297    5:30   41.9    39   10.8   200     13.8    99999.00   99999    99999.0
 297    5:40   41.6    40   11.4   195     15.0    99999.00   99999    99999.0
 297    5:50   41.6    41   11.5   192     15.0    99999.00   99999    99999.0
 297    6:00   41.0    42   10.0   189     13.8    99999.00   99999    99999.0
 297    6:10   40.8    42   10.8   187     15.0    99999.00   99999    99999.0
 297    6:20   41.1    42   11.5   192     16.3    99999.00   99999    99999.0
 297    6:30   41.0    43   11.5   194     16.3    99999.00   99999    99999.0
 297    6:40   41.0    44   11.1   194     15.0    99999.00   99999    99999.0
 297    6:50   40.9    44   10.7   194     15.0    99999.00   99999    99999.0
 297    7:00   40.7    45   10.0   194     13.8    99999.00   99999    99999.0
 297    7:10   40.5    46    9.8   200     13.8    99999.00   99999    99999.0
 297    7:20   40.3    47    9.7   194     12.5    99999.00   99999    99999.0
 297    7:30   39.9    48    8.6   192     12.5    99999.00   99999    99999.0
 297    7:40   40.1    48    9.7   183     12.5    99999.00   99999    99999.0
 297    7:50   40.2    48   10.6   179     15.0    99999.00   99999    99999.0
 297    8:00   40.4    48   10.5   179     13.8    99999.00   99999    99999.0
 297    8:10   41.2    47   10.0   185     12.5    99999.00   99999    99999.0
 297    8:20   41.7    47    8.8   189     11.2    99999.00   99999    99999.0
 297    8:30   42.6    46    9.4   195     13.8    99999.00   99999    99999.0
 297    8:40   43.8    45    9.7   192     13.8    99999.00   99999    99999.0
 297    8:50   44.6    44    9.1   198     12.5    99999.00   99999    99999.0
 297    9:00   45.6    43    9.1   196     13.8    99999.00   99999    99999.0

Return to Whitewater Creek, Colorado graphs page.


Western Regional Climate Center,wrcc@dri.edu